createdAt,value
2023-03-10T00:02:22.894Z,-3.10
2023-03-10T00:04:50.880Z,-3.08
2023-03-10T00:07:17.670Z,-3.08
2023-03-10T00:09:44.358Z,-3.09
2023-03-10T00:12:11.181Z,-3.10
2023-03-10T00:14:37.940Z,-3.07
2023-03-10T00:17:05.118Z,-3.08
2023-03-10T00:19:31.525Z,-3.17
2023-03-10T00:21:58.029Z,-3.10
2023-03-10T00:24:24.709Z,-3.05
2023-03-10T00:26:51.371Z,-3.05
2023-03-10T00:29:18.837Z,-3.09
2023-03-10T00:31:45.326Z,-3.08
2023-03-10T00:34:12.354Z,-3.06
2023-03-10T00:36:40.425Z,-3.07
2023-03-10T00:39:10.759Z,-3.11
2023-03-10T00:41:39.197Z,-3.21
2023-03-10T00:44:09.438Z,-3.19
2023-03-10T00:46:38.724Z,-3.15
2023-03-10T00:49:09.169Z,-3.18
2023-03-10T00:51:35.827Z,-3.12
2023-03-10T00:54:03.587Z,-3.15
2023-03-10T00:56:30.447Z,-3.13
2023-03-10T00:58:59.903Z,-3.16
2023-03-10T01:01:34.143Z,-3.18
2023-03-10T01:04:04.732Z,-3.18
2023-03-10T01:06:31.674Z,-3.17
2023-03-10T01:08:58.324Z,-3.21
2023-03-10T01:11:27.575Z,-3.15
2023-03-10T01:13:57.315Z,-3.17
2023-03-10T01:16:24.097Z,-3.20
2023-03-10T01:18:50.712Z,-3.29
2023-03-10T01:21:23.255Z,-3.32
2023-03-10T01:23:50.381Z,-3.28
2023-03-10T01:26:18.749Z,-3.30
2023-03-10T01:28:46.098Z,-3.33
2023-03-10T01:31:13.037Z,-3.31
2023-03-10T01:33:41.003Z,-3.29
2023-03-10T01:36:09.391Z,-3.31
2023-03-10T01:38:37.032Z,-3.20
2023-03-10T01:41:04.456Z,-3.19
2023-03-10T01:43:32.754Z,-3.25
2023-03-10T01:46:02.244Z,-3.23
2023-03-10T01:48:32.925Z,-3.19
2023-03-10T01:51:00.302Z,-3.24
2023-03-10T01:53:28.697Z,-3.23
2023-03-10T01:55:59.632Z,-3.30
2023-03-10T01:58:32.549Z,-3.27
2023-03-10T02:00:59.005Z,-3.32
2023-03-10T02:03:34.737Z,-3.31
2023-03-10T02:09:44.755Z,-3.31
2023-03-10T02:12:13.705Z,-3.41
2023-03-10T02:14:41.295Z,-3.44
2023-03-10T02:17:11.434Z,-3.41
2023-03-10T02:20:01.972Z,-3.31
2023-03-10T02:22:28.524Z,-3.32
2023-03-10T02:25:05.449Z,-3.42
2023-03-10T02:27:35.373Z,-3.40
2023-03-10T02:30:21.266Z,-3.46
2023-03-10T02:32:52.125Z,-3.37
2023-03-10T02:35:18.798Z,-3.41
2023-03-10T02:37:45.620Z,-3.42
2023-03-10T02:40:33.964Z,-3.34
2023-03-10T02:43:26.062Z,-3.44
2023-03-10T02:45:55.518Z,-3.37
2023-03-10T02:48:29.502Z,-3.38
2023-03-10T02:50:57.750Z,-3.44
2023-03-10T02:53:26.850Z,-3.38
2023-03-10T02:55:54.243Z,-3.37
2023-03-10T02:58:21.882Z,-3.36
2023-03-10T03:00:50.234Z,-3.32
2023-03-10T03:03:18.726Z,-3.18
2023-03-10T03:05:45.803Z,-3.24
2023-03-10T03:08:12.314Z,-3.20
2023-03-10T03:10:39.058Z,-3.21
2023-03-10T03:13:06.416Z,-3.14
2023-03-10T03:15:33.340Z,-3.19
2023-03-10T03:18:00.016Z,-3.20
2023-03-10T03:20:27.840Z,-3.28
2023-03-10T03:22:54.613Z,-3.26
2023-03-10T03:25:22.978Z,-3.21
2023-03-10T03:27:49.970Z,-3.20
2023-03-10T03:30:22.262Z,-3.16
2023-03-10T03:32:50.570Z,-3.16
2023-03-10T03:35:24.594Z,-3.19
2023-03-10T03:37:52.437Z,-3.21
2023-03-10T03:40:20.075Z,-3.25
2023-03-10T03:42:49.402Z,-3.29
2023-03-10T03:45:18.178Z,-3.30
2023-03-10T03:47:44.808Z,-3.26
2023-03-10T03:50:13.178Z,-3.23
2023-03-10T03:52:40.166Z,-3.30
2023-03-10T03:55:08.430Z,-3.26
2023-03-10T03:57:35.321Z,-3.26
2023-03-10T04:00:02.556Z,-3.30
2023-03-10T04:02:29.303Z,-3.27
2023-03-10T04:04:55.959Z,-3.30
2023-03-10T04:07:22.399Z,-3.30
2023-03-10T04:09:48.824Z,-3.20
2023-03-10T04:12:15.233Z,-3.24
2023-03-10T04:14:41.706Z,-3.24
2023-03-10T04:17:10.152Z,-3.26
2023-03-10T04:19:37.593Z,-3.21
2023-03-10T04:22:04.100Z,-3.24
2023-03-10T04:24:30.610Z,-3.23
2023-03-10T04:26:57.137Z,-3.16
2023-03-10T04:29:24.530Z,-3.16
2023-03-10T04:32:04.737Z,-3.08
2023-03-10T04:34:32.698Z,-3.05
2023-03-10T04:36:59.412Z,-3.01
2023-03-10T04:39:25.945Z,-3.00
2023-03-10T04:41:52.425Z,-3.06
2023-03-10T04:44:30.408Z,-3.01
2023-03-10T04:46:58.454Z,-2.89
2023-03-10T04:49:24.972Z,-2.89
2023-03-10T04:51:51.660Z,-2.87
2023-03-10T04:54:18.375Z,-2.79
2023-03-10T04:56:44.864Z,-2.83
2023-03-10T04:59:11.307Z,-2.87
2023-03-10T05:01:37.900Z,-2.87
2023-03-10T05:04:05.785Z,-2.85
2023-03-10T05:06:32.528Z,-2.97
2023-03-10T05:09:00.962Z,-2.99
2023-03-10T05:11:27.472Z,-2.98
2023-03-10T05:13:54.006Z,-2.94
2023-03-10T05:16:22.150Z,-2.96
2023-03-10T05:18:48.648Z,-2.99
2023-03-10T05:21:15.667Z,-2.98
2023-03-10T05:23:42.270Z,-2.94
2023-03-10T05:26:11.014Z,-2.70
2023-03-10T05:28:37.913Z,-2.70
2023-03-10T05:31:09.885Z,-2.44
2023-03-10T05:33:36.379Z,-1.00
2023-03-10T05:36:11.577Z,-0.52
2023-03-10T05:38:38.404Z,-1.14
2023-03-10T05:41:09.496Z,-1.57
2023-03-10T05:43:37.099Z,-1.71
2023-03-10T05:46:04.795Z,-1.78
2023-03-10T05:48:31.758Z,-1.58
2023-03-10T05:50:59.560Z,-1.32
2023-03-10T05:53:26.313Z,-1.48
2023-03-10T05:55:54.554Z,-1.55
2023-03-10T05:58:21.046Z,-1.44
2023-03-10T06:00:47.589Z,-1.77
2023-03-10T06:03:14.146Z,-1.64
2023-03-10T06:05:40.740Z,-1.49
2023-03-10T06:08:07.328Z,-1.40
2023-03-10T06:10:33.883Z,-1.34
2023-03-10T06:13:00.372Z,-1.39
2023-03-10T06:15:26.929Z,-1.32
2023-03-10T06:17:53.421Z,-1.33
2023-03-10T06:20:19.981Z,-1.39
2023-03-10T06:22:46.401Z,-1.56
2023-03-10T06:25:13.297Z,-1.59
2023-03-10T06:27:39.772Z,-1.61
2023-03-10T06:30:07.011Z,-1.52
2023-03-10T06:32:34.748Z,-1.54
2023-03-10T06:35:01.268Z,-1.60
2023-03-10T06:37:28.112Z,-1.67
2023-03-10T06:39:54.595Z,-1.30
2023-03-10T06:42:21.113Z,-1.34
2023-03-10T06:44:49.291Z,-1.19
2023-03-10T06:47:15.846Z,-1.38
2023-03-10T06:49:42.578Z,-1.24
2023-03-10T06:52:09.039Z,-1.20
2023-03-10T06:54:36.234Z,-1.17
2023-03-10T06:57:04.965Z,-1.40
2023-03-10T06:59:32.706Z,-1.03
2023-03-10T07:01:59.178Z,-1.37
2023-03-10T07:04:25.663Z,-1.23
2023-03-10T07:06:52.364Z,-1.23
2023-03-10T07:09:18.829Z,-1.17
2023-03-10T07:11:45.363Z,-1.25
2023-03-10T07:14:11.772Z,-1.15
2023-03-10T07:16:41.198Z,-0.87
2023-03-10T07:19:07.790Z,-0.73
2023-03-10T07:21:34.234Z,-0.71
2023-03-10T07:24:00.852Z,-0.90
2023-03-10T07:26:27.488Z,-1.06
2023-03-10T07:28:54.439Z,-1.04
2023-03-10T07:31:21.151Z,-1.00
2023-03-10T07:33:49.302Z,-0.88
2023-03-10T07:36:18.541Z,-0.74
2023-03-10T07:38:45.249Z,-0.62
2023-03-10T07:41:16.131Z,-0.43
2023-03-10T07:43:42.665Z,-0.62
2023-03-10T07:46:12.310Z,-0.55
2023-03-10T07:48:39.274Z,-0.49
2023-03-10T07:51:06.271Z,-0.37
2023-03-10T07:53:33.416Z,-0.22
2023-03-10T07:56:00.133Z,-0.37
2023-03-10T07:58:26.894Z,-0.14
2023-03-10T08:00:57.550Z,0.13
2023-03-10T08:03:25.528Z,-0.02
2023-03-10T08:05:52.169Z,0.08
2023-03-10T08:08:19.366Z,0.10
2023-03-10T08:10:46.329Z,0.04
2023-03-10T08:13:13.412Z,0.19
2023-03-10T08:15:40.289Z,0.25
2023-03-10T08:18:07.752Z,0.15
2023-03-10T08:20:37.302Z,0.24
2023-03-10T08:23:04.831Z,0.35
2023-03-10T08:25:31.278Z,0.35
2023-03-10T08:27:57.890Z,0.50
2023-03-10T08:30:25.070Z,0.52
2023-03-10T08:32:51.571Z,0.77
2023-03-10T08:35:18.195Z,0.61
2023-03-10T08:37:44.682Z,0.53
2023-03-10T08:40:13.662Z,0.74
2023-03-10T08:42:40.214Z,0.94
2023-03-10T08:45:08.819Z,1.09
2023-03-10T08:47:36.005Z,0.93
2023-03-10T08:50:03.808Z,1.10
2023-03-10T08:52:30.277Z,1.56
2023-03-10T08:54:59.513Z,1.49
2023-03-10T08:57:26.333Z,1.72
2023-03-10T08:59:52.964Z,2.24
2023-03-10T09:02:21.891Z,3.57
2023-03-10T09:04:49.497Z,3.13
2023-03-10T09:07:16.780Z,3.61
2023-03-10T09:09:43.717Z,3.94
2023-03-10T09:12:11.501Z,3.84
2023-03-10T09:14:38.414Z,4.12
2023-03-10T09:17:05.405Z,4.33
2023-03-10T09:19:31.876Z,4.33
2023-03-10T09:21:59.268Z,3.89
2023-03-10T09:24:25.794Z,3.86
2023-03-10T09:26:52.322Z,3.70
2023-03-10T09:29:18.775Z,3.97
2023-03-10T09:31:46.761Z,3.96
2023-03-10T09:34:13.803Z,3.92
2023-03-10T09:36:40.302Z,4.10
2023-03-10T09:39:06.868Z,4.27
2023-03-10T09:42:03.664Z,4.15
2023-03-10T09:44:47.669Z,4.43
2023-03-10T09:47:49.224Z,4.46
2023-03-10T09:50:40.421Z,4.54
2023-03-10T09:53:17.885Z,4.60
2023-03-10T09:55:48.568Z,4.48
2023-03-10T09:58:28.283Z,4.61
2023-03-10T10:00:54.754Z,4.50
2023-03-10T10:03:23.790Z,4.30
2023-03-10T10:05:53.677Z,4.33
2023-03-10T10:08:27.353Z,4.20
2023-03-10T10:10:58.246Z,4.22
2023-03-10T10:13:27.830Z,4.33
2023-03-10T10:16:24.667Z,4.40
2023-03-10T10:19:03.713Z,4.82
2023-03-10T10:21:43.081Z,4.99
2023-03-10T10:24:10.279Z,4.85
2023-03-10T10:26:36.811Z,4.81
2023-03-10T10:29:15.417Z,4.87
2023-03-10T10:31:42.061Z,4.94
2023-03-10T10:34:23.805Z,5.22
2023-03-10T10:36:52.663Z,4.96
2023-03-10T10:39:32.412Z,4.87
2023-03-10T10:42:24.492Z,5.06
2023-03-10T10:44:56.698Z,5.00
2023-03-10T10:47:27.873Z,4.91
2023-03-10T10:49:55.617Z,4.97
2023-03-10T10:52:25.493Z,5.29
2023-03-10T10:54:58.782Z,5.24
2023-03-10T10:57:35.250Z,5.17
2023-03-10T11:00:25.083Z,5.29
2023-03-10T11:02:51.642Z,5.46
2023-03-10T11:05:18.118Z,5.56
2023-03-10T11:07:45.438Z,5.01
2023-03-10T11:10:17.604Z,5.17
2023-03-10T11:13:06.758Z,5.26
2023-03-10T11:15:37.886Z,5.19
2023-03-10T11:18:17.390Z,5.20
2023-03-10T11:21:07.114Z,5.16
2023-03-10T11:24:16.948Z,5.04
2023-03-10T11:26:59.002Z,4.84
2023-03-10T11:29:56.395Z,4.95
2023-03-10T11:32:34.952Z,4.73
2023-03-10T11:35:36.529Z,4.62
2023-03-10T11:38:19.154Z,4.61
2023-03-10T11:40:52.933Z,3.85
2023-03-10T11:43:38.234Z,4.19
2023-03-10T11:46:49.726Z,4.55
2023-03-10T11:49:17.447Z,3.66
2023-03-10T11:51:49.953Z,3.99
2023-03-10T11:54:27.516Z,4.15
2023-03-10T11:56:55.152Z,4.36
2023-03-10T11:59:24.585Z,4.84
2023-03-10T12:02:00.281Z,4.65
2023-03-10T12:04:48.803Z,4.71
2023-03-10T12:07:33.427Z,4.93
2023-03-10T12:10:04.245Z,4.58
2023-03-10T12:12:44.889Z,4.27
2023-03-10T12:15:24.862Z,4.50
2023-03-10T12:17:53.704Z,4.52
2023-03-10T12:20:24.845Z,4.73
2023-03-10T12:22:55.300Z,4.89
2023-03-10T12:25:27.979Z,4.86
2023-03-10T12:28:22.467Z,5.06
2023-03-10T12:31:06.428Z,5.20
2023-03-10T12:33:39.561Z,4.90
2023-03-10T12:36:29.745Z,4.74
2023-03-10T12:39:01.584Z,4.92
2023-03-10T12:41:27.945Z,4.84
2023-03-10T12:43:56.038Z,5.03
2023-03-10T12:46:25.034Z,5.06
2023-03-10T12:49:22.250Z,5.22
2023-03-10T12:52:11.532Z,5.20
2023-03-10T12:55:14.906Z,5.40
2023-03-10T12:57:55.541Z,6.28
2023-03-10T13:01:01.329Z,6.49
2023-03-10T13:03:42.354Z,5.99
2023-03-10T13:06:18.613Z,5.73
2023-03-10T13:09:11.430Z,5.27
2023-03-10T13:12:04.565Z,4.84
2023-03-10T13:14:39.817Z,5.15
2023-03-10T13:17:09.476Z,5.42
2023-03-10T13:19:37.404Z,5.11
2023-03-10T13:22:07.283Z,5.08
2023-03-10T13:24:36.035Z,5.31
2023-03-10T13:27:15.228Z,5.15
2023-03-10T13:30:05.504Z,4.94
2023-03-10T13:32:33.176Z,5.41
2023-03-10T13:35:21.988Z,4.82
2023-03-10T13:38:10.499Z,4.83
2023-03-10T13:40:46.341Z,5.01
2023-03-10T13:43:43.067Z,5.19
2023-03-10T13:46:28.362Z,5.20
2023-03-10T13:48:58.082Z,5.12
2023-03-10T13:51:26.412Z,4.60
2023-03-10T13:53:55.227Z,4.31
2023-03-10T13:56:28.765Z,4.32
2023-03-10T13:58:58.200Z,4.44
2023-03-10T14:01:28.336Z,4.49
2023-03-10T14:04:00.133Z,4.39
2023-03-10T14:06:30.321Z,4.27
2023-03-10T14:08:56.986Z,4.55
2023-03-10T14:11:41.049Z,4.20
2023-03-10T14:14:10.195Z,4.34
2023-03-10T14:16:53.606Z,4.18
2023-03-10T14:19:39.805Z,4.08
2023-03-10T14:22:22.482Z,4.06
2023-03-10T14:24:48.982Z,3.88
2023-03-10T14:27:15.484Z,3.99
2023-03-10T14:29:55.237Z,3.95
2023-03-10T14:32:22.956Z,4.16
2023-03-10T14:34:49.773Z,4.17
2023-03-10T14:37:16.469Z,4.19
2023-03-10T14:39:42.989Z,3.98
2023-03-10T14:42:22.259Z,3.99
2023-03-10T14:44:49.621Z,3.91
2023-03-10T14:47:17.145Z,3.91
2023-03-10T14:49:43.911Z,3.92
2023-03-10T14:52:14.699Z,3.77
2023-03-10T14:54:41.168Z,3.84
2023-03-10T14:57:08.307Z,3.71
2023-03-10T14:59:34.939Z,3.75
2023-03-10T15:02:10.486Z,3.66
2023-03-10T15:04:37.010Z,3.63
2023-03-10T15:07:03.496Z,3.30
2023-03-10T15:09:29.973Z,3.42
2023-03-10T15:11:57.095Z,3.45
2023-03-10T15:14:23.577Z,3.39
2023-03-10T15:16:50.048Z,3.23
2023-03-10T15:19:23.310Z,3.15
2023-03-10T15:21:50.548Z,3.15
2023-03-10T15:24:17.355Z,3.21
2023-03-10T15:26:43.919Z,3.16
2023-03-10T15:29:16.853Z,2.95
2023-03-10T15:31:43.494Z,3.07
2023-03-10T15:34:09.980Z,3.09
2023-03-10T15:36:36.855Z,2.79
2023-03-10T15:39:04.331Z,2.49
2023-03-10T15:41:35.072Z,2.55
2023-03-10T15:44:01.654Z,2.65
2023-03-10T15:46:28.238Z,2.76
2023-03-10T15:48:54.872Z,2.31
2023-03-10T15:51:22.194Z,2.13
2023-03-10T15:53:48.978Z,2.08
2023-03-10T15:56:15.853Z,2.08
2023-03-10T15:58:42.364Z,1.94
2023-03-10T16:01:11.535Z,1.86
2023-03-10T16:03:38.594Z,1.59
2023-03-10T16:06:05.951Z,1.44
2023-03-10T16:08:37.220Z,1.37
2023-03-10T16:11:15.007Z,1.41
2023-03-10T16:13:41.507Z,1.39
2023-03-10T16:16:09.095Z,1.45
2023-03-10T16:18:36.049Z,1.42
2023-03-10T16:21:03.595Z,1.49
2023-03-10T16:23:31.661Z,1.56
2023-03-10T16:26:08.722Z,1.53
2023-03-10T16:28:36.284Z,1.46
2023-03-10T16:31:04.275Z,1.41
2023-03-10T16:33:31.186Z,1.55
2023-03-10T16:35:59.451Z,1.60
2023-03-10T16:38:26.815Z,1.54
2023-03-10T16:40:54.385Z,1.46
2023-03-10T16:43:22.205Z,1.67
2023-03-10T16:45:51.007Z,1.68
2023-03-10T16:48:21.158Z,1.58
2023-03-10T16:50:47.809Z,1.58
2023-03-10T16:53:16.677Z,1.49
2023-03-10T16:55:44.140Z,1.61
2023-03-10T16:58:10.606Z,1.53
2023-03-10T17:00:37.921Z,1.60
2023-03-10T17:03:04.432Z,1.56
2023-03-10T17:05:31.128Z,1.44
2023-03-10T17:08:02.353Z,1.22
2023-03-10T17:10:31.927Z,1.34
2023-03-10T17:12:58.489Z,1.32
2023-03-10T17:15:24.945Z,1.22
2023-03-10T17:17:51.917Z,1.18
2023-03-10T17:20:18.580Z,1.05
2023-03-10T17:22:45.119Z,1.09
2023-03-10T17:25:13.424Z,1.00
2023-03-10T17:27:41.749Z,0.82
2023-03-10T17:30:09.807Z,0.59
2023-03-10T17:32:37.110Z,0.59
2023-03-10T17:35:05.538Z,0.71
2023-03-10T17:37:31.972Z,0.76
2023-03-10T17:39:58.509Z,0.71
2023-03-10T17:42:26.517Z,0.73
2023-03-10T17:44:53.012Z,0.88
2023-03-10T17:47:19.470Z,0.88
2023-03-10T17:49:45.979Z,0.91
2023-03-10T17:52:12.525Z,0.90
2023-03-10T17:54:39.316Z,0.83
2023-03-10T17:57:05.895Z,0.90
2023-03-10T17:59:33.423Z,0.81
2023-03-10T18:02:02.577Z,0.56
2023-03-10T18:04:30.180Z,0.58
2023-03-10T18:06:56.641Z,0.61
2023-03-10T18:09:23.198Z,0.64
2023-03-10T18:11:49.726Z,0.63
2023-03-10T18:14:16.366Z,0.66
2023-03-10T18:16:42.973Z,0.59
2023-03-10T18:19:11.213Z,0.66
2023-03-10T18:21:38.185Z,0.56
2023-03-10T18:24:04.973Z,0.40
2023-03-10T18:26:31.527Z,0.55
2023-03-10T18:28:59.229Z,0.44
2023-03-10T18:31:28.298Z,0.37
2023-03-10T18:33:55.103Z,0.38
2023-03-10T18:36:23.922Z,0.31
2023-03-10T18:38:51.232Z,0.04
2023-03-10T18:41:19.619Z,0.09
2023-03-10T18:43:46.507Z,0.05
2023-03-10T18:46:13.153Z,-0.10
2023-03-10T18:48:39.667Z,-0.01
2023-03-10T18:51:06.141Z,0.13
2023-03-10T18:53:32.772Z,0.13
2023-03-10T18:56:00.040Z,0.26
2023-03-10T18:58:26.975Z,0.35
2023-03-10T19:00:53.506Z,0.18
2023-03-10T19:03:20.048Z,0.05
2023-03-10T19:05:46.739Z,0.06
2023-03-10T19:08:13.284Z,-0.17
2023-03-10T19:10:40.188Z,-0.10
2023-03-10T19:13:07.925Z,-0.07
2023-03-10T19:15:36.547Z,0.02
2023-03-10T19:18:03.922Z,0.01
2023-03-10T19:20:30.391Z,0.08
2023-03-10T19:22:57.312Z,-0.01
2023-03-10T19:25:23.956Z,0.15
2023-03-10T19:27:50.620Z,0.11
2023-03-10T19:30:22.713Z,0.10
2023-03-10T19:32:49.286Z,0.13
2023-03-10T19:35:18.351Z,0.01
2023-03-10T19:37:46.956Z,-0.00
2023-03-10T19:40:16.272Z,-0.21
2023-03-10T19:42:43.224Z,-0.25
2023-03-10T19:45:11.963Z,-0.12
2023-03-10T19:47:38.769Z,-0.37
2023-03-10T19:50:06.579Z,-0.27
2023-03-10T19:52:33.033Z,-0.50
2023-03-10T19:54:59.871Z,-0.42
2023-03-10T19:57:26.379Z,-0.35
2023-03-10T19:59:53.109Z,-0.47
2023-03-10T20:02:19.700Z,-0.45
2023-03-10T20:04:47.644Z,-0.27
2023-03-10T20:07:14.132Z,-0.33
2023-03-10T20:09:40.602Z,-0.33
2023-03-10T20:12:07.165Z,-0.26
2023-03-10T20:14:33.677Z,-0.31
2023-03-10T20:17:00.218Z,-0.27
2023-03-10T20:19:26.770Z,-0.34
2023-03-10T20:21:53.273Z,-0.38
2023-03-10T20:24:20.610Z,-0.36
2023-03-10T20:26:48.936Z,-0.44
2023-03-10T20:29:15.389Z,-0.54
2023-03-10T20:31:42.042Z,-0.49
2023-03-10T20:34:18.243Z,-0.57
2023-03-10T20:36:45.676Z,-0.51
2023-03-10T20:39:12.145Z,-0.34
2023-03-10T20:41:38.739Z,-0.39
2023-03-10T20:44:09.439Z,-0.43
2023-03-10T20:46:36.027Z,-0.76
2023-03-10T20:49:02.514Z,-0.65
2023-03-10T20:51:29.224Z,-0.63
2023-03-10T20:53:56.897Z,-0.54
2023-03-10T20:56:23.357Z,-0.39
2023-03-10T20:58:49.888Z,-0.36
2023-03-10T21:01:19.116Z,-0.44
2023-03-10T21:03:45.750Z,-0.40
2023-03-10T21:06:12.169Z,-0.35
2023-03-10T21:08:38.702Z,-0.63
2023-03-10T21:11:05.157Z,-0.73
2023-03-10T21:13:31.763Z,-0.69
2023-03-10T21:15:58.604Z,-0.64
2023-03-10T21:18:25.872Z,-0.52
2023-03-10T21:20:52.330Z,-0.73
2023-03-10T21:23:18.734Z,-0.64
2023-03-10T21:25:45.250Z,-0.63
2023-03-10T21:28:11.751Z,-0.75
2023-03-10T21:30:38.784Z,-0.72
2023-03-10T21:33:05.295Z,-0.70
2023-03-10T21:35:34.367Z,-0.57
2023-03-10T21:38:00.932Z,-0.53
2023-03-10T21:40:28.180Z,-0.40
2023-03-10T21:42:54.654Z,-0.42
2023-03-10T21:45:23.827Z,-0.59
2023-03-10T21:47:50.346Z,-0.55
2023-03-10T21:50:17.820Z,-0.68
2023-03-10T21:52:44.763Z,-0.98
2023-03-10T21:55:21.177Z,-0.82
2023-03-10T21:57:47.778Z,-0.83
2023-03-10T22:00:15.394Z,-0.97
2023-03-10T22:02:42.166Z,-1.07
2023-03-10T22:05:12.726Z,-1.05
2023-03-10T22:07:39.664Z,-1.02
2023-03-10T22:10:07.972Z,-1.13
2023-03-10T22:12:34.724Z,-1.23
2023-03-10T22:15:01.501Z,-1.19
2023-03-10T22:17:28.287Z,-1.11
2023-03-10T22:19:54.883Z,-1.16
2023-03-10T22:22:22.688Z,-1.22
2023-03-10T22:24:49.848Z,-1.25
2023-03-10T22:27:16.993Z,-1.20
2023-03-10T22:29:43.463Z,-1.13
2023-03-10T22:32:09.969Z,-1.05
2023-03-10T22:34:36.359Z,-1.22
2023-03-10T22:37:02.805Z,-1.26
2023-03-10T22:39:29.271Z,-1.14
2023-03-10T22:41:55.792Z,-1.09
2023-03-10T22:44:22.863Z,-1.08
2023-03-10T22:46:50.100Z,-1.26
2023-03-10T22:49:16.654Z,-1.39
2023-03-10T22:51:43.330Z,-1.35
2023-03-10T22:54:09.776Z,-1.21
2023-03-10T22:56:36.214Z,-1.13
2023-03-10T22:59:04.360Z,-1.05
2023-03-10T23:01:30.946Z,-1.00
2023-03-10T23:03:57.451Z,-1.25
2023-03-10T23:06:26.233Z,-1.46
2023-03-10T23:08:52.762Z,-1.34
2023-03-10T23:11:19.219Z,-1.22
2023-03-10T23:13:45.685Z,-1.27
2023-03-10T23:16:12.177Z,-1.45
2023-03-10T23:18:38.688Z,-1.31
2023-03-10T23:21:06.226Z,-1.25
2023-03-10T23:23:33.008Z,-1.27
2023-03-10T23:25:59.517Z,-1.36
2023-03-10T23:28:26.326Z,-1.36
2023-03-10T23:30:54.235Z,-1.40
2023-03-10T23:33:23.753Z,-1.50
2023-03-10T23:35:53.696Z,-1.45
2023-03-10T23:38:22.661Z,-1.34
2023-03-10T23:40:50.544Z,-1.24
2023-03-10T23:43:17.572Z,-1.12
2023-03-10T23:45:44.603Z,-1.00
2023-03-10T23:48:16.071Z,-1.16
2023-03-10T23:50:43.421Z,-0.99
2023-03-10T23:53:12.320Z,-1.08
2023-03-10T23:55:42.421Z,-1.02
2023-03-10T23:58:09.989Z,-0.96
